createdAt,value
2019-06-26T00:00:38.349Z,0.00
2019-06-26T00:01:38.399Z,0.00
2019-06-26T00:02:38.383Z,0.00
2019-06-26T00:03:38.330Z,0.00
2019-06-26T00:04:38.297Z,0.00
2019-06-26T00:05:38.288Z,0.00
2019-06-26T00:06:38.296Z,0.00
2019-06-26T00:07:38.262Z,0.00
2019-06-26T00:08:38.312Z,0.00
2019-06-26T00:09:38.244Z,0.00
2019-06-26T00:10:38.228Z,0.00
2019-06-26T00:11:38.220Z,0.00
2019-06-26T00:12:38.209Z,0.00
2019-06-26T00:13:38.196Z,0.00
2019-06-26T00:14:39.034Z,0.00
2019-06-26T00:15:38.172Z,0.00
2019-06-26T00:16:38.160Z,0.00
2019-06-26T00:17:38.151Z,0.00
2019-06-26T00:18:38.141Z,0.00
2019-06-26T00:19:38.126Z,0.00
2019-06-26T00:20:38.172Z,0.00
2019-06-26T00:21:38.106Z,0.00
2019-06-26T00:22:38.092Z,0.00
2019-06-26T00:23:38.082Z,0.00
2019-06-26T00:24:38.117Z,0.00
2019-06-26T00:25:38.084Z,0.00
2019-06-26T00:26:38.100Z,0.00
2019-06-26T00:27:38.048Z,0.00
2019-06-26T00:28:38.025Z,0.00
2019-06-26T00:29:38.018Z,0.00
2019-06-26T00:30:38.005Z,0.00
2019-06-26T00:31:37.991Z,0.00
2019-06-26T00:32:38.024Z,0.00
2019-06-26T00:33:37.968Z,0.00
2019-06-26T00:34:38.121Z,0.00
2019-06-26T00:35:37.947Z,0.00
2019-06-26T00:36:37.938Z,0.00
2019-06-26T00:37:38.168Z,0.00
2019-06-26T00:38:40.077Z,0.00
2019-06-26T00:39:37.926Z,0.00
2019-06-26T00:40:37.892Z,0.00
2019-06-26T00:41:37.879Z,0.00
2019-06-26T00:42:37.873Z,0.00
2019-06-26T00:43:42.240Z,0.00
2019-06-26T00:44:37.848Z,0.00
2019-06-26T00:45:37.834Z,0.00
2019-06-26T00:46:37.823Z,0.00
2019-06-26T00:47:37.811Z,0.00
2019-06-26T00:48:37.801Z,0.00
2019-06-26T00:49:37.846Z,0.00
2019-06-26T00:50:37.778Z,0.00
2019-06-26T00:51:37.772Z,0.00
2019-06-26T00:52:37.757Z,0.00
2019-06-26T00:53:37.747Z,0.00
2019-06-26T00:54:37.735Z,0.00
2019-06-26T00:55:37.782Z,0.00
2019-06-26T00:56:38.233Z,0.00
2019-06-26T00:57:37.717Z,0.00
2019-06-26T00:58:37.689Z,0.00
2019-06-26T00:59:37.678Z,0.00
2019-06-26T01:00:37.668Z,0.00
2019-06-26T01:01:37.858Z,0.00
2019-06-26T01:02:37.642Z,0.00
2019-06-26T01:03:37.632Z,0.00
2019-06-26T01:04:37.620Z,0.00
2019-06-26T01:05:37.621Z,0.00
2019-06-26T01:06:37.599Z,0.00
2019-06-26T01:07:37.645Z,0.00
2019-06-26T01:08:37.575Z,0.00
2019-06-26T01:09:37.563Z,0.00
2019-06-26T01:10:37.552Z,0.00
2019-06-26T01:11:37.541Z,0.00
2019-06-26T01:12:37.531Z,0.00
2019-06-26T01:13:37.577Z,0.00
2019-06-26T01:14:37.518Z,0.00
2019-06-26T01:15:37.497Z,0.00
2019-06-26T01:16:37.485Z,0.00
2019-06-26T01:17:37.476Z,0.00
2019-06-26T01:18:37.468Z,0.00
2019-06-26T01:19:37.685Z,0.00
2019-06-26T01:20:37.440Z,0.00
2019-06-26T01:21:37.430Z,0.00
2019-06-26T01:22:37.426Z,0.00
2019-06-26T01:23:37.408Z,0.00
2019-06-26T01:24:37.394Z,0.00
2019-06-26T01:25:37.438Z,0.00
2019-06-26T01:26:37.377Z,0.00
2019-06-26T01:27:37.358Z,0.00
2019-06-26T01:28:37.347Z,0.00
2019-06-26T01:29:37.335Z,0.00
2019-06-26T01:30:37.323Z,0.00
2019-06-26T01:31:37.530Z,0.00
2019-06-26T01:32:37.305Z,0.00
2019-06-26T01:33:37.289Z,0.00
2019-06-26T01:34:37.276Z,0.00
2019-06-26T01:35:37.272Z,0.00
2019-06-26T01:36:37.255Z,0.00
2019-06-26T01:37:37.310Z,0.00
2019-06-26T01:38:37.231Z,0.00
2019-06-26T01:39:37.219Z,0.00
2019-06-26T01:40:37.207Z,0.00
2019-06-26T01:41:37.196Z,0.00
2019-06-26T01:42:37.198Z,0.00
2019-06-26T01:43:37.236Z,0.00
2019-06-26T01:44:37.161Z,0.00
2019-06-26T01:45:37.191Z,0.00
2019-06-26T01:46:37.138Z,0.00
2019-06-26T01:47:37.134Z,0.00
2019-06-26T01:48:37.117Z,0.00
2019-06-26T01:49:37.169Z,0.00
2019-06-26T01:50:37.091Z,0.00
2019-06-26T01:51:37.081Z,0.00
2019-06-26T01:52:37.085Z,0.00
2019-06-26T01:53:37.058Z,0.00
2019-06-26T01:54:37.055Z,0.00
2019-06-26T01:55:37.085Z,0.00
2019-06-26T01:56:37.027Z,0.00
2019-06-26T01:57:37.010Z,0.00
2019-06-26T01:58:37.066Z,0.00
2019-06-26T01:59:36.989Z,0.00
2019-06-26T02:00:36.976Z,0.00
2019-06-26T02:01:36.964Z,0.00
2019-06-26T02:02:36.954Z,0.00
2019-06-26T02:03:36.942Z,0.00
2019-06-26T02:04:37.142Z,0.00
2019-06-26T02:05:36.928Z,0.00
2019-06-26T02:06:36.995Z,0.00
2019-06-26T02:07:36.928Z,0.00
2019-06-26T02:08:36.886Z,0.00
2019-06-26T02:09:36.872Z,0.00
2019-06-26T02:10:36.927Z,0.00
2019-06-26T02:11:36.851Z,0.00
2019-06-26T02:12:36.840Z,0.00
2019-06-26T02:13:36.829Z,0.00
2019-06-26T02:14:36.815Z,0.00
2019-06-26T02:15:36.804Z,0.00
2019-06-26T02:16:36.854Z,0.00
2019-06-26T02:17:36.822Z,0.00
2019-06-26T02:18:36.770Z,4.00
2019-06-26T02:19:36.761Z,4.00
2019-06-26T02:20:36.750Z,4.00
2019-06-26T02:21:36.747Z,4.00
2019-06-26T02:22:36.938Z,4.00
2019-06-26T02:23:36.726Z,4.00
2019-06-26T02:24:36.702Z,4.00
2019-06-26T02:25:36.693Z,4.00
2019-06-26T02:26:36.679Z,8.00
2019-06-26T02:27:36.670Z,4.00
2019-06-26T02:28:36.869Z,8.00
2019-06-26T02:29:36.652Z,12.00
2019-06-26T02:30:36.635Z,8.00
2019-06-26T02:31:36.625Z,12.00
2019-06-26T02:32:36.614Z,12.00
2019-06-26T02:33:36.600Z,12.00
2019-06-26T02:34:36.800Z,16.00
2019-06-26T02:35:36.584Z,16.00
2019-06-26T02:36:36.571Z,20.00
2019-06-26T02:37:36.559Z,24.00
2019-06-26T02:38:36.546Z,28.00
2019-06-26T02:39:36.539Z,28.00
2019-06-26T02:40:36.738Z,36.00
2019-06-26T02:41:36.511Z,36.00
2019-06-26T02:42:36.499Z,44.00
2019-06-26T02:43:36.495Z,48.00
2019-06-26T02:44:52.160Z,56.00
2019-06-26T02:45:37.685Z,64.00
2019-06-26T02:46:36.456Z,68.00
2019-06-26T02:47:36.451Z,76.00
2019-06-26T02:48:36.434Z,84.00
2019-06-26T02:49:36.422Z,96.00
2019-06-26T02:50:36.415Z,104.00
2019-06-26T02:51:36.459Z,116.00
2019-06-26T02:52:36.389Z,128.00
2019-06-26T02:53:36.378Z,144.00
2019-06-26T02:54:36.369Z,156.00
2019-06-26T02:55:36.362Z,168.00
2019-06-26T02:56:36.343Z,184.00
2019-06-26T02:57:36.409Z,200.00
2019-06-26T02:58:36.321Z,216.00
2019-06-26T02:59:36.310Z,232.00
2019-06-26T03:00:36.300Z,252.00
2019-06-26T03:01:36.288Z,272.00
2019-06-26T03:02:36.280Z,292.00
2019-06-26T03:03:36.329Z,312.00
2019-06-26T03:04:36.254Z,336.00
2019-06-26T03:05:36.244Z,360.00
2019-06-26T03:06:36.232Z,384.00
2019-06-26T03:07:36.245Z,408.00
2019-06-26T03:08:36.212Z,440.00
2019-06-26T03:09:36.264Z,468.00
2019-06-26T03:10:36.189Z,500.00
2019-06-26T03:11:36.181Z,536.00
2019-06-26T03:12:36.165Z,576.00
2019-06-26T03:13:36.158Z,612.00
2019-06-26T03:14:36.150Z,656.00
2019-06-26T03:15:36.387Z,700.00
2019-06-26T03:16:36.122Z,740.00
2019-06-26T03:17:36.110Z,792.00
2019-06-26T03:18:36.098Z,832.00
2019-06-26T03:19:36.087Z,884.00
2019-06-26T03:20:36.085Z,928.00
2019-06-26T03:21:36.279Z,972.00
2019-06-26T03:22:36.055Z,1020.00
2019-06-26T03:23:36.044Z,1068.00
2019-06-26T03:24:36.031Z,1112.00
2019-06-26T03:25:36.078Z,1156.00
2019-06-26T03:26:36.009Z,1208.00
2019-06-26T03:27:36.061Z,1252.00
2019-06-26T03:28:35.996Z,1300.00
2019-06-26T03:29:35.976Z,1348.00
2019-06-26T03:30:35.965Z,1392.00
2019-06-26T03:31:35.956Z,1440.00
2019-06-26T03:32:35.946Z,1488.00
2019-06-26T03:33:35.993Z,1536.00
2019-06-26T03:34:35.922Z,1580.00
2019-06-26T03:35:35.909Z,1624.00
2019-06-26T03:36:35.900Z,1664.00
2019-06-26T03:37:35.886Z,1704.00
2019-06-26T03:38:35.876Z,1748.00
2019-06-26T03:39:35.930Z,1784.00
2019-06-26T03:40:35.863Z,1828.00
2019-06-26T03:41:35.843Z,1868.00
2019-06-26T03:42:35.832Z,1908.00
2019-06-26T03:43:35.917Z,1944.00
2019-06-26T03:44:35.810Z,1976.00
2019-06-26T03:45:35.853Z,2012.00
2019-06-26T03:46:35.787Z,2044.00
2019-06-26T03:47:35.778Z,2072.00
2019-06-26T03:48:35.764Z,2108.00
2019-06-26T03:49:35.815Z,2144.00
2019-06-26T03:50:35.741Z,2184.00
2019-06-26T03:51:35.762Z,2232.00
2019-06-26T03:52:35.720Z,2280.00
2019-06-26T03:53:35.708Z,2328.00
2019-06-26T03:54:35.696Z,2372.00
2019-06-26T03:55:35.745Z,2412.00
2019-06-26T03:56:35.674Z,2440.00
2019-06-26T03:57:35.663Z,2468.00
2019-06-26T03:58:35.653Z,2492.00
2019-06-26T03:59:35.652Z,2520.00
2019-06-26T04:00:35.638Z,2548.00
2019-06-26T04:01:35.682Z,2584.00
2019-06-26T04:02:35.606Z,2616.00
2019-06-26T04:03:35.595Z,2656.00
2019-06-26T04:04:35.586Z,2696.00
2019-06-26T04:05:35.773Z,2728.00
2019-06-26T04:06:35.561Z,2752.00
2019-06-26T04:07:35.616Z,2776.00
2019-06-26T04:08:35.542Z,2808.00
2019-06-26T04:09:35.531Z,2836.00
2019-06-26T04:10:35.518Z,2868.00
2019-06-26T04:11:35.508Z,2904.00
2019-06-26T04:12:35.497Z,2944.00
2019-06-26T04:13:35.707Z,2988.00
2019-06-26T04:14:35.483Z,3048.00
2019-06-26T04:15:42.222Z,3112.00
2019-06-26T04:16:36.451Z,3184.00
2019-06-26T04:17:35.438Z,3268.00
2019-06-26T04:18:35.425Z,3368.00
2019-06-26T04:19:35.478Z,3492.00
2019-06-26T04:20:35.403Z,3632.00
2019-06-26T04:21:35.444Z,3780.00
2019-06-26T04:22:35.380Z,3908.00
2019-06-26T04:23:35.372Z,4036.00
2019-06-26T04:24:35.355Z,4164.00
2019-06-26T04:25:38.122Z,4288.00
2019-06-26T04:26:35.334Z,4404.00
2019-06-26T04:27:35.320Z,4508.00
2019-06-26T04:28:35.310Z,4580.00
2019-06-26T04:29:35.302Z,4648.00
2019-06-26T04:30:35.285Z,4700.00
2019-06-26T04:31:35.338Z,4772.00
2019-06-26T04:32:35.262Z,4856.00
2019-06-26T04:33:35.254Z,4952.00
2019-06-26T04:34:35.243Z,5032.00
2019-06-26T04:35:35.227Z,5104.00
2019-06-26T04:36:35.218Z,5160.00
2019-06-26T04:37:35.279Z,5200.00
2019-06-26T04:38:35.192Z,5236.00
2019-06-26T04:39:35.182Z,5280.00
2019-06-26T04:40:35.169Z,5316.00
2019-06-26T04:41:35.158Z,5348.00
2019-06-26T04:42:35.146Z,5384.00
2019-06-26T04:43:35.349Z,5412.00
2019-06-26T04:44:35.122Z,5428.00
2019-06-26T04:45:35.114Z,5452.00
2019-06-26T04:46:35.100Z,5452.00
2019-06-26T04:47:35.090Z,5476.00
2019-06-26T04:48:35.080Z,5496.00
2019-06-26T04:49:35.130Z,5520.00
2019-06-26T04:50:35.057Z,5548.00
2019-06-26T04:51:35.047Z,5576.00
2019-06-26T04:52:35.036Z,5604.00
2019-06-26T04:53:35.023Z,5624.00
2019-06-26T04:54:35.010Z,5648.00
2019-06-26T04:55:35.209Z,5672.00
2019-06-26T04:56:34.991Z,5692.00
2019-06-26T04:57:35.021Z,5720.00
2019-06-26T04:58:34.966Z,5780.00
2019-06-26T04:59:34.955Z,5812.00
2019-06-26T05:00:34.947Z,5852.00
2019-06-26T05:01:34.998Z,5884.00
2019-06-26T05:02:34.925Z,5920.00
2019-06-26T05:03:34.912Z,5964.00
2019-06-26T05:04:34.899Z,5996.00
2019-06-26T05:05:39.486Z,6028.00
2019-06-26T05:06:35.934Z,6064.00
2019-06-26T05:07:35.195Z,6100.00
2019-06-26T05:08:34.856Z,6132.00
2019-06-26T05:09:34.841Z,6160.00
2019-06-26T05:10:34.829Z,6192.00
2019-06-26T05:11:34.836Z,6224.00
2019-06-26T05:12:34.869Z,6260.00
2019-06-26T05:13:34.859Z,6292.00
2019-06-26T05:14:34.783Z,6332.00
2019-06-26T05:15:34.773Z,6364.00
2019-06-26T05:16:34.763Z,6400.00
2019-06-26T05:17:34.749Z,6436.00
2019-06-26T05:18:34.801Z,6472.00
2019-06-26T05:19:34.729Z,6528.00
2019-06-26T05:20:34.717Z,6568.00
2019-06-26T05:21:34.704Z,6608.00
2019-06-26T05:22:34.695Z,6648.00
2019-06-26T05:23:34.686Z,6684.00
2019-06-26T05:24:34.885Z,6720.00
2019-06-26T05:25:34.669Z,6752.00
2019-06-26T05:26:34.647Z,6784.00
2019-06-26T05:27:34.637Z,6820.00
2019-06-26T05:28:34.625Z,6852.00
2019-06-26T05:29:34.619Z,6888.00
2019-06-26T05:30:34.668Z,6920.00
2019-06-26T05:31:34.615Z,6956.00
2019-06-26T05:32:34.579Z,6984.00
2019-06-26T05:33:34.567Z,7016.00
2019-06-26T05:34:34.555Z,7060.00
2019-06-26T05:35:35.329Z,7096.00
2019-06-26T05:36:34.617Z,7124.00
2019-06-26T05:37:34.643Z,7164.00
2019-06-26T05:38:34.511Z,7196.00
2019-06-26T05:39:34.502Z,7232.00
2019-06-26T05:40:34.490Z,7272.00
2019-06-26T05:41:34.514Z,7308.00
2019-06-26T05:42:34.532Z,7344.00
2019-06-26T05:43:34.474Z,7380.00
2019-06-26T05:44:34.445Z,7416.00
2019-06-26T05:45:34.434Z,7456.00
2019-06-26T05:46:34.429Z,7496.00
2019-06-26T05:47:34.424Z,7536.00
2019-06-26T05:48:34.613Z,7584.00
2019-06-26T05:49:34.390Z,7628.00
2019-06-26T05:50:34.380Z,7688.00
2019-06-26T05:51:34.372Z,7744.00
2019-06-26T05:52:34.367Z,7812.00
2019-06-26T05:53:34.348Z,7888.00
2019-06-26T05:54:34.432Z,7980.00
2019-06-26T05:55:34.350Z,8084.00
2019-06-26T05:56:34.310Z,8200.00
2019-06-26T05:57:34.303Z,8340.00
2019-06-26T05:58:34.291Z,8496.00
2019-06-26T05:59:34.278Z,8708.00
2019-06-26T06:00:34.329Z,8996.00
2019-06-26T06:01:34.253Z,9884.00
2019-06-26T06:02:34.258Z,15188.00
2019-06-26T06:03:34.290Z,22368.00
2019-06-26T06:04:34.221Z,26688.00
2019-06-26T06:05:34.211Z,27840.00
2019-06-26T06:06:41.699Z,28384.00
2019-06-26T06:07:35.190Z,28544.00
2019-06-26T06:08:34.178Z,28960.00
2019-06-26T06:09:34.165Z,29152.00
2019-06-26T06:10:34.154Z,29600.00
2019-06-26T06:11:34.142Z,30848.00
2019-06-26T06:12:34.344Z,31424.00
2019-06-26T06:13:34.265Z,32096.00
2019-06-26T06:14:34.112Z,32544.00
2019-06-26T06:15:34.100Z,32512.00
2019-06-26T06:16:46.975Z,32320.00
2019-06-26T06:17:35.134Z,32512.00
2019-06-26T06:18:34.072Z,32736.00
2019-06-26T06:19:34.054Z,32960.00
2019-06-26T06:20:34.042Z,33440.00
2019-06-26T06:21:34.033Z,33376.00
2019-06-26T06:22:34.033Z,35104.00
2019-06-26T06:23:34.070Z,36032.00
2019-06-26T06:24:34.003Z,35488.00
2019-06-26T06:25:33.988Z,35808.00
2019-06-26T06:26:33.978Z,35552.00
2019-06-26T06:27:33.967Z,36544.00
2019-06-26T06:28:33.987Z,36352.00
2019-06-26T06:29:33.995Z,36224.00
2019-06-26T06:30:33.934Z,37248.00
2019-06-26T06:31:34.132Z,38656.00
2019-06-26T06:32:33.911Z,39296.00
2019-06-26T06:33:33.901Z,38656.00
2019-06-26T06:34:33.889Z,37792.00
2019-06-26T06:35:33.880Z,38944.00
2019-06-26T06:36:33.871Z,39200.00
2019-06-26T06:37:33.920Z,39072.00
2019-06-26T06:38:33.853Z,39584.00
2019-06-26T06:39:33.840Z,40768.00
2019-06-26T06:40:33.833Z,41760.00
2019-06-26T06:41:33.816Z,42240.00
2019-06-26T06:42:33.803Z,41984.00
2019-06-26T06:43:34.007Z,40800.00
2019-06-26T06:44:33.783Z,39296.00
2019-06-26T06:45:33.772Z,38752.00
2019-06-26T06:46:33.766Z,39104.00
2019-06-26T06:47:33.751Z,41600.00
2019-06-26T06:48:33.740Z,43680.00
2019-06-26T06:49:33.800Z,42016.00
2019-06-26T06:50:33.719Z,41024.00
2019-06-26T06:51:33.708Z,29728.00
2019-06-26T06:52:33.696Z,15580.00
2019-06-26T06:53:33.693Z,13048.00
2019-06-26T06:54:33.678Z,12488.00
2019-06-26T06:55:33.728Z,11904.00
2019-06-26T06:56:33.654Z,12068.00
2019-06-26T06:57:33.670Z,11976.00
2019-06-26T06:58:33.633Z,11876.00
2019-06-26T06:59:33.680Z,11832.00
2019-06-26T07:00:33.642Z,11756.00
2019-06-26T07:01:33.812Z,11632.00
2019-06-26T07:02:33.588Z,11596.00
2019-06-26T07:03:33.626Z,11520.00
2019-06-26T07:04:33.567Z,11452.00
2019-06-26T07:05:33.557Z,11388.00
2019-06-26T07:06:33.646Z,11348.00
2019-06-26T07:07:33.598Z,11308.00
2019-06-26T07:08:33.527Z,11284.00
2019-06-26T07:09:33.514Z,11260.00
2019-06-26T07:10:33.506Z,11228.00
2019-06-26T07:11:33.493Z,11212.00
2019-06-26T07:12:33.748Z,11188.00
2019-06-26T07:13:33.582Z,11188.00
2019-06-26T07:14:33.462Z,11156.00
2019-06-26T07:15:33.455Z,11132.00
2019-06-26T07:16:33.443Z,11128.00
2019-06-26T07:17:33.430Z,11128.00
2019-06-26T07:18:33.420Z,11124.00
2019-06-26T07:19:33.459Z,11140.00
2019-06-26T07:20:33.408Z,11148.00
2019-06-26T07:21:33.481Z,11156.00
2019-06-26T07:22:33.377Z,11176.00
2019-06-26T07:23:33.500Z,11188.00
2019-06-26T07:24:33.356Z,11212.00
2019-06-26T07:25:33.344Z,11228.00
2019-06-26T07:26:33.334Z,11256.00
2019-06-26T07:27:33.386Z,11316.00
2019-06-26T07:28:33.315Z,11392.00
2019-06-26T07:29:33.306Z,11456.00
2019-06-26T07:30:33.372Z,11536.00
2019-06-26T07:31:33.282Z,11604.00
2019-06-26T07:32:33.271Z,11688.00
2019-06-26T07:33:33.324Z,11784.00
2019-06-26T07:34:33.250Z,11872.00
2019-06-26T07:35:33.239Z,11976.00
2019-06-26T07:36:33.229Z,12080.00
2019-06-26T07:37:33.219Z,12200.00
2019-06-26T07:38:33.207Z,12308.00
2019-06-26T07:39:33.249Z,12436.00
2019-06-26T07:40:33.188Z,12568.00
2019-06-26T07:41:33.440Z,12700.00
2019-06-26T07:42:33.172Z,12808.00
2019-06-26T07:43:33.155Z,12908.00
2019-06-26T07:44:33.145Z,13008.00
2019-06-26T07:45:33.135Z,13148.00
2019-06-26T07:46:33.124Z,13268.00
2019-06-26T07:47:43.214Z,13372.00
2019-06-26T07:48:34.100Z,13496.00
2019-06-26T07:49:33.125Z,13600.00
2019-06-26T07:50:33.083Z,13704.00
2019-06-26T07:51:33.164Z,13828.00
2019-06-26T07:52:33.059Z,13912.00
2019-06-26T07:53:33.113Z,14004.00
2019-06-26T07:54:33.039Z,14116.00
2019-06-26T07:55:33.027Z,14228.00
2019-06-26T07:56:33.015Z,14348.00
2019-06-26T07:57:33.004Z,14460.00
2019-06-26T07:58:32.998Z,14576.00
2019-06-26T07:59:33.253Z,14648.00
2019-06-26T08:00:32.975Z,14760.00
2019-06-26T08:01:32.969Z,14848.00
2019-06-26T08:02:32.951Z,14940.00
2019-06-26T08:03:32.959Z,15040.00
2019-06-26T08:04:32.931Z,15152.00
2019-06-26T08:05:32.998Z,15240.00
2019-06-26T08:06:32.916Z,15312.00
2019-06-26T08:07:32.898Z,15384.00
2019-06-26T08:08:32.887Z,15488.00
2019-06-26T08:09:32.876Z,15564.00
2019-06-26T08:10:32.867Z,15592.00
2019-06-26T08:11:33.067Z,15664.00
2019-06-26T08:12:32.845Z,15736.00
2019-06-26T08:13:32.855Z,15808.00
2019-06-26T08:14:32.824Z,15872.00
2019-06-26T08:15:32.834Z,15956.00
2019-06-26T08:16:34.473Z,16004.00
2019-06-26T08:17:33.038Z,16072.00
2019-06-26T08:18:32.801Z,16128.00
2019-06-26T08:19:32.773Z,16216.00
2019-06-26T08:20:32.764Z,16288.00
2019-06-26T08:21:32.751Z,16360.00
2019-06-26T08:22:32.751Z,16436.00
2019-06-26T08:23:32.792Z,16508.00
2019-06-26T08:24:32.718Z,16580.00
2019-06-26T08:25:32.713Z,16604.00
2019-06-26T08:26:32.699Z,16656.00
2019-06-26T08:27:32.689Z,16736.00
2019-06-26T08:28:32.679Z,16804.00
2019-06-26T08:29:32.730Z,16864.00
2019-06-26T08:30:32.655Z,16900.00
2019-06-26T08:31:32.647Z,16960.00
2019-06-26T08:32:32.636Z,16976.00
2019-06-26T08:33:32.626Z,17032.00
2019-06-26T08:34:32.614Z,17040.00
2019-06-26T08:35:32.714Z,17060.00
2019-06-26T08:36:32.591Z,17096.00
2019-06-26T08:37:32.811Z,17128.00
2019-06-26T08:38:32.577Z,17152.00
2019-06-26T08:39:32.565Z,17184.00
2019-06-26T08:40:32.548Z,17220.00
2019-06-26T08:41:32.590Z,17268.00
2019-06-26T08:42:32.590Z,17272.00
2019-06-26T08:43:32.518Z,17304.00
2019-06-26T08:44:32.505Z,17320.00
2019-06-26T08:45:32.500Z,17288.00
2019-06-26T08:46:32.486Z,17292.00
2019-06-26T08:47:32.474Z,17368.00
2019-06-26T08:48:39.404Z,17368.00
2019-06-26T08:49:33.451Z,17368.00
2019-06-26T08:50:32.457Z,17372.00
2019-06-26T08:51:32.435Z,17400.00
2019-06-26T08:52:32.495Z,17420.00
2019-06-26T08:53:32.422Z,17460.00
2019-06-26T08:54:32.426Z,17516.00
2019-06-26T08:55:32.416Z,17528.00
2019-06-26T08:56:32.387Z,17548.00
2019-06-26T08:57:32.374Z,17600.00
2019-06-26T08:58:32.420Z,17604.00
2019-06-26T08:59:32.346Z,17632.00
2019-06-26T09:00:32.336Z,17668.00
2019-06-26T09:01:32.325Z,17688.00
2019-06-26T09:02:32.312Z,17744.00
2019-06-26T09:03:32.304Z,17780.00
2019-06-26T09:04:32.354Z,17844.00
2019-06-26T09:05:46.800Z,17944.00
2019-06-26T09:06:33.270Z,17968.00
2019-06-26T09:07:32.266Z,17956.00
2019-06-26T09:08:32.356Z,17992.00
2019-06-26T09:09:32.243Z,18020.00
2019-06-26T09:10:32.290Z,18008.00
2019-06-26T09:11:32.222Z,18152.00
2019-06-26T09:12:32.278Z,18368.00
2019-06-26T09:13:32.202Z,18464.00
2019-06-26T09:14:32.196Z,18464.00
2019-06-26T09:15:32.180Z,18560.00
2019-06-26T09:16:32.169Z,18720.00
2019-06-26T09:17:32.158Z,18848.00
2019-06-26T09:18:35.956Z,19040.00
2019-06-26T09:19:32.142Z,19232.00
2019-06-26T09:20:32.126Z,19456.00
2019-06-26T09:21:32.117Z,19904.00
2019-06-26T09:22:32.104Z,20480.00
2019-06-26T09:23:32.097Z,21696.00
2019-06-26T09:24:32.311Z,35296.00
2019-06-26T09:25:32.074Z,62816.00
2019-06-26T09:26:32.063Z,74112.00
2019-06-26T09:27:32.055Z,80832.00
2019-06-26T09:28:32.046Z,85216.00
2019-06-26T09:29:32.035Z,89344.00
2019-06-26T09:30:32.081Z,88384.00
2019-06-26T09:31:32.014Z,88960.00
2019-06-26T09:32:32.008Z,86880.00
2019-06-26T09:33:32.584Z,82432.00
2019-06-26T09:34:31.990Z,84512.00
2019-06-26T09:35:31.975Z,84832.00
2019-06-26T09:36:31.962Z,85664.00
2019-06-26T09:37:31.958Z,86240.00
2019-06-26T09:38:31.942Z,86912.00
2019-06-26T09:39:31.998Z,87648.00
2019-06-26T09:40:32.271Z,89664.00
2019-06-26T09:41:31.914Z,92864.00
2019-06-26T09:42:31.904Z,92608.00
2019-06-26T09:43:31.899Z,95648.00
2019-06-26T09:44:31.882Z,97568.00
2019-06-26T09:45:31.958Z,97472.00
2019-06-26T09:46:31.862Z,100704.00
2019-06-26T09:47:31.852Z,101344.00
2019-06-26T09:48:31.852Z,101280.00
2019-06-26T09:49:31.833Z,101728.00
2019-06-26T09:50:31.823Z,101568.00
2019-06-26T09:51:31.903Z,98912.00
2019-06-26T09:52:31.908Z,98720.00
2019-06-26T09:53:45.963Z,96384.00
2019-06-26T09:54:32.784Z,94016.00
2019-06-26T09:55:31.772Z,94624.00
2019-06-26T09:56:31.762Z,92832.00
2019-06-26T09:57:31.815Z,91488.00
2019-06-26T09:58:31.738Z,89760.00
2019-06-26T09:59:31.732Z,88224.00
2019-06-26T10:00:31.718Z,84768.00
2019-06-26T10:01:31.711Z,85568.00
2019-06-26T10:02:31.702Z,86784.00
2019-06-26T10:03:31.906Z,86304.00
2019-06-26T10:04:31.680Z,87872.00
2019-06-26T10:05:31.673Z,86784.00
2019-06-26T10:06:31.660Z,88096.00
2019-06-26T10:07:31.652Z,86624.00
2019-06-26T10:08:31.641Z,87136.00
2019-06-26T10:09:31.697Z,86784.00
2019-06-26T10:10:31.621Z,87712.00
2019-06-26T10:11:31.623Z,87808.00
2019-06-26T10:12:31.604Z,87296.00
2019-06-26T10:13:31.588Z,84928.00
2019-06-26T10:14:46.698Z,84032.00
2019-06-26T10:15:32.779Z,84320.00
2019-06-26T10:16:31.561Z,83424.00
2019-06-26T10:17:31.553Z,84992.00
2019-06-26T10:18:31.541Z,85536.00
2019-06-26T10:19:31.531Z,86400.00
2019-06-26T10:20:31.526Z,83648.00
2019-06-26T10:21:31.575Z,87584.00
2019-06-26T10:22:31.506Z,85344.00
2019-06-26T10:23:31.496Z,86464.00
2019-06-26T10:24:31.486Z,86848.00
2019-06-26T10:25:31.476Z,86944.00
2019-06-26T10:26:32.699Z,86720.00
2019-06-26T10:27:31.538Z,89344.00
2019-06-26T10:28:31.469Z,93248.00
2019-06-26T10:29:31.435Z,94912.00
2019-06-26T10:30:31.428Z,97920.00
2019-06-26T10:31:31.417Z,100384.00
2019-06-26T10:32:31.407Z,104544.00
2019-06-26T10:33:31.463Z,98848.00
2019-06-26T10:34:31.387Z,101888.00
2019-06-26T10:35:31.381Z,102144.00
2019-06-26T10:36:31.373Z,106464.00
2019-06-26T10:37:31.359Z,106944.00
2019-06-26T10:38:31.352Z,110464.00
2019-06-26T10:39:31.555Z,110816.00
2019-06-26T10:40:31.351Z,110688.00
2019-06-26T10:41:31.328Z,112544.00
2019-06-26T10:42:31.317Z,110368.00
2019-06-26T10:43:31.318Z,104064.00
2019-06-26T10:44:31.297Z,100096.00
2019-06-26T10:45:31.347Z,88096.00
2019-06-26T10:46:31.291Z,97888.00
2019-06-26T10:47:31.478Z,99392.00
2019-06-26T10:48:31.261Z,102208.00
2019-06-26T10:49:31.248Z,97248.00
2019-06-26T10:50:31.240Z,96064.00
2019-06-26T10:51:31.295Z,91936.00
2019-06-26T10:52:31.241Z,93024.00
2019-06-26T10:53:31.213Z,95168.00
2019-06-26T10:54:31.205Z,93856.00
2019-06-26T10:55:31.191Z,94464.00
2019-06-26T10:56:31.197Z,92320.00
2019-06-26T10:57:31.239Z,93024.00
2019-06-26T10:58:31.170Z,99456.00
2019-06-26T10:59:31.157Z,103424.00
2019-06-26T11:00:31.157Z,102880.00
2019-06-26T11:01:31.136Z,102592.00
2019-06-26T11:02:31.128Z,103872.00
2019-06-26T11:03:31.182Z,102464.00
2019-06-26T11:04:31.117Z,102336.00
2019-06-26T11:05:31.111Z,101632.00
2019-06-26T11:06:31.094Z,102432.00
2019-06-26T11:07:31.081Z,103520.00
2019-06-26T11:08:31.075Z,104000.00
2019-06-26T11:09:31.154Z,102848.00
2019-06-26T11:10:31.053Z,103712.00
2019-06-26T11:11:31.042Z,99072.00
2019-06-26T11:12:31.065Z,100864.00
2019-06-26T11:13:31.028Z,101856.00
2019-06-26T11:14:31.016Z,100608.00
2019-06-26T11:15:31.070Z,103168.00
2019-06-26T11:16:30.995Z,104384.00
2019-06-26T11:17:30.991Z,102816.00
2019-06-26T11:18:30.977Z,102912.00
2019-06-26T11:19:43.199Z,102944.00
2019-06-26T11:20:32.020Z,103008.00
2019-06-26T11:21:30.951Z,104544.00
2019-06-26T11:22:30.942Z,102272.00
2019-06-26T11:23:30.932Z,96928.00
2019-06-26T11:24:30.918Z,96416.00
2019-06-26T11:25:30.910Z,95872.00
2019-06-26T11:26:30.964Z,96864.00
2019-06-26T11:27:30.890Z,103424.00
2019-06-26T11:28:30.880Z,104896.00
2019-06-26T11:29:30.872Z,104704.00
2019-06-26T11:30:30.863Z,107648.00
2019-06-26T11:31:30.852Z,106656.00
2019-06-26T11:32:31.081Z,105792.00
2019-06-26T11:33:30.837Z,103520.00
2019-06-26T11:34:30.829Z,97504.00
2019-06-26T11:35:30.816Z,91392.00
2019-06-26T11:36:30.807Z,92800.00
2019-06-26T11:37:30.801Z,96448.00
2019-06-26T11:38:31.002Z,95712.00
2019-06-26T11:39:30.791Z,104480.00
2019-06-26T11:40:30.772Z,109664.00
2019-06-26T11:41:30.766Z,109696.00
2019-06-26T11:42:32.839Z,111040.00
2019-06-26T11:43:30.745Z,103584.00
2019-06-26T11:44:30.800Z,98592.00
2019-06-26T11:45:30.728Z,96448.00
2019-06-26T11:46:30.720Z,97760.00
2019-06-26T11:47:30.713Z,99936.00
2019-06-26T11:48:30.708Z,106336.00
2019-06-26T11:49:30.716Z,113472.00
2019-06-26T11:50:30.937Z,108544.00
2019-06-26T11:51:30.674Z,103520.00
2019-06-26T11:52:30.667Z,95264.00
2019-06-26T11:53:30.661Z,96640.00
2019-06-26T11:54:30.650Z,100608.00
2019-06-26T11:55:30.646Z,104544.00
2019-06-26T11:56:30.802Z,112384.00
2019-06-26T11:57:30.624Z,111424.00
2019-06-26T11:58:30.622Z,106752.00
2019-06-26T11:59:30.606Z,104512.00
2019-06-26T12:00:30.872Z,97344.00
2019-06-26T12:01:30.587Z,94752.00
2019-06-26T12:02:30.650Z,98304.00
2019-06-26T12:03:30.572Z,105728.00
2019-06-26T12:04:30.565Z,110368.00
2019-06-26T12:05:30.551Z,108704.00
2019-06-26T12:06:30.547Z,105472.00
2019-06-26T12:07:30.535Z,96576.00
2019-06-26T12:08:30.745Z,94528.00